Aquebogue, New York
Current Conditions -  °F | °C
As of 6:53 PM on Wednesday 17 Dec 2014 (Local Time) from KFOK Reporting Station
Scattered Clouds Scattered Clouds  
Wind Chill: 40°   Ceiling: Unl
Heat Index: 47°   Visibility: 10mi
Dew Point: 34°   Wind: 16mph
Humidity: 61%   Direction: 290°WNW
Pressure: 29.84"   Gusts: NA
Location:  40.94°N, 72.61°W
Report Text: KFOK 172353Z 29014KT 10SM SCT037 08/01 A2984 RMK AO2 SLP106 T00830011 10122 20083 51014
Loading
Personal Weather Stations






























Interactive Weather Map New forecast layout! Learn more

10-Day Weather Forecast

Advertisements
Track Severe Weather on mobile